Archival Weather

Chicago O'Hare International

Chicago, Illinois (KORD)

Report from: Wednesday, February 16, 2022 1:51 AM CST
Current time: Saturday, February 4, 2023 9:31 PM CST

Current weather
Weather history
Weather forecast

Temperature7.8°C (46.0°F)
Wind chill4.4°C (39.9°F)
Dew point0.0°C (32.0°F)
Winds 12 kts (6.2 m/s, 13.8 mph) South-Southwest (200°)
Visibility10 mi. (16.1 km)
Clouds Ceiling: Overcast 25,000 ft. (7,620 m)
Altimeter29.90 in.Hg (1013 mB)
Relative humidity58 %
Density altitude-747 ft. (-228 m)
Sea-level pressure101.3 kPa (1013 mB, 29.91 in.Hg)
Remarks Automated weather observing station with precipitation discriminator
Flight conditions Visual Meteorological Conditions
Raw dataKORD 160751Z 20012KT 10SM OVC250 08/00 A2990 RMK AO2 SLP130 T00780000
An unhandled exception has occurred. See browser dev tools for details. Reload 🗙